Welcome to Trans World Virtual Airlines!

Welcome TWVA's Newest Pilot:

TWA2313 Bryan Heald

Not a Trans World pilot yet?
Apply Now!




Sign-in with your pilot id or email, or register

Flight TWA7880

  • Submitted By: Austin Hill
  • Departure Airport: Kansas City International Airport (KMCI)
  • Arrival Airport: JFK Airport (KJFK)
  • Aircraft: E170 (N173TE)
  • Flight Time: 03.10
  • Date Submitted: 09/02/2018
  • Route: MCI MCM DEC VHP DQN AIR IHD THS LRP PTW ARD COL
  • Status: Accepted
Flight Details
Gross Revenue:
(64 load / $ 450.00 per unit
$ 28, 800.00
Fuel Cost:
(9984 fuel used @ 0.8 / unit)
$ 7, 987.20

Additional Log Information:

View Log

FS[11:50] Aircraft Title - Embraer 170 TWA
FS[11:50] Aircraft Model - E-170
FS[11:50] Flight Number TWA7880
FS[11:50] Departure KMCI
FS[11:50] Destination KJFK
FS[11:50] Boarding
FS[12:01] Pushing Back
FS[12:06] Taxiing to Runway
FS[12:13] Taking Off
FS[12:13] Taking Off
FS[12:13] 152kts
FS[12:13] pitch angle 5 degrees
FS[12:13] 15048 (lbs) of fuel onboard
FS[12:13] Climbing
FS[12:35] TOC Reached
FS[12:35] Cruise 37000
FS[14:11] TOD Reached
FS[14:11] Descending
FS[14:27] On Approach
FS[14:38] Landing Rate -57fpm
FS[14:38] 6246 (lbs) of fuel onboard
FS[14:38] pitch angle 8 degrees
FS[14:38] Taxiing to Gate
FS[14:49] Arrived
FS[14:55] Max Sim Rate: 1x
FS[14:55] kACARS_Free Version 1.0.1.1

Comments

Commenter Comment
Austin Hill KMCI 011150Z 21811KT 10SM FEW025 SCT090 28/22 A3003 // KJFK 011410Z 17010KT 10SM FEW029 SCT036 BKN070 BKN150 26/21 A3026

Route Map